sensor_id;sensor_type;location;lat;lon;timestamp;P1;durP1;ratioP1;P2;durP2;ratioP2
8458;SDS011;4266;48.816;9.154;2023-10-19T01:56:59;18.03;;;14.67;;
8458;SDS011;4266;48.816;9.154;2023-10-19T01:59:39;14.77;;;13.27;;
8458;SDS011;4266;48.816;9.154;2023-10-19T02:02:13;16.60;;;13.40;;
8458;SDS011;4266;48.816;9.154;2023-10-19T02:04:48;15.07;;;13.17;;
8458;SDS011;4266;48.816;9.154;2023-10-19T02:07:21;13.87;;;12.13;;
8458;SDS011;4266;48.816;9.154;2023-10-19T02:09:53;12.97;;;11.30;;
8458;SDS011;4266;48.816;9.154;2023-10-19T02:12:30;14.67;;;12.67;;
8458;SDS011;4266;48.816;9.154;2023-10-19T02:15:09;14.83;;;12.20;;
8458;SDS011;4266;48.816;9.154;2023-10-19T02:17:40;13.40;;;12.10;;
8458;SDS011;4266;48.816;9.154;2023-10-19T02:20:09;13.67;;;12.20;;
8458;SDS011;4266;48.816;9.154;2023-10-19T02:22:52;15.03;;;12.43;;
8458;SDS011;4266;48.816;9.154;2023-10-19T02:25:41;13.57;;;10.63;;
8458;SDS011;4266;48.816;9.154;2023-10-19T02:28:26;16.27;;;11.70;;
8458;SDS011;4266;48.816;9.154;2023-10-19T02:31:03;12.10;;;10.80;;
8458;SDS011;4266;48.816;9.154;2023-10-19T02:36:42;14.30;;;12.43;;
8458;SDS011;4266;48.816;9.154;2023-10-19T02:39:31;14.73;;;11.67;;
8458;SDS011;4266;48.816;9.154;2023-10-19T02:42:08;12.23;;;11.03;;
8458;SDS011;4266;48.816;9.154;2023-10-19T02:44:44;14.30;;;11.90;;
8458;SDS011;4266;48.816;9.154;2023-10-19T02:47:19;12.20;;;10.60;;
8458;SDS011;4266;48.816;9.154;2023-10-19T02:49:53;12.27;;;11.07;;
8458;SDS011;4266;48.816;9.154;2023-10-19T02:52:44;14.70;;;10.87;;
8458;SDS011;4266;48.816;9.154;2023-10-19T02:55:10;12.77;;;11.57;;
8458;SDS011;4266;48.816;9.154;2023-10-19T02:57:42;16.10;;;12.70;;
8458;SDS011;4266;48.816;9.154;2023-10-19T03:00:18;15.67;;;11.63;;
8458;SDS011;4266;48.816;9.154;2023-10-19T03:02:51;14.80;;;11.90;;
8458;SDS011;4266;48.816;9.154;2023-10-19T03:05:19;12.83;;;10.97;;
8458;SDS011;4266;48.816;9.154;2023-10-19T03:07:49;15.43;;;11.87;;
8458;SDS011;4266;48.816;9.154;2023-10-19T03:10:21;15.90;;;11.53;;
8458;SDS011;4266;48.816;9.154;2023-10-19T03:16:03;17.57;;;13.77;;
8458;SDS011;4266;48.816;9.154;2023-10-19T03:18:46;17.93;;;14.33;;
8458;SDS011;4266;48.816;9.154;2023-10-19T03:23:55;19.37;;;16.33;;
8458;SDS011;4266;48.816;9.154;2023-10-19T03:26:31;21.00;;;16.17;;
8458;SDS011;4266;48.816;9.154;2023-10-19T03:29:05;21.03;;;18.03;;
8458;SDS011;4266;48.816;9.154;2023-10-19T03:31:34;23.53;;;17.50;;
8458;SDS011;4266;48.816;9.154;2023-10-19T03:40:11;26.17;;;19.60;;
8458;SDS011;4266;48.816;9.154;2023-10-19T03:45:31;25.40;;;19.07;;
8458;SDS011;4266;48.816;9.154;2023-10-19T03:48:01;26.13;;;18.93;;
8458;SDS011;4266;48.816;9.154;2023-10-19T03:50:34;26.27;;;17.60;;
8458;SDS011;4266;48.816;9.154;2023-10-19T04:02:14;21.23;;;15.43;;
8458;SDS011;4266;48.816;9.154;2023-10-19T04:04:57;24.77;;;16.03;;
8458;SDS011;4266;48.816;9.154;2023-10-19T04:07:27;23.77;;;16.90;;
8458;SDS011;4266;48.816;9.154;2023-10-19T04:09:58;18.97;;;16.70;;
8458;SDS011;4266;48.816;9.154;2023-10-19T04:24:41;19.97;;;14.20;;
8458;SDS011;4266;48.816;9.154;2023-10-19T04:27:22;20.10;;;14.40;;
8458;SDS011;4266;48.816;9.154;2023-10-19T04:35:38;15.73;;;13.63;;
8458;SDS011;4266;48.816;9.154;2023-10-19T04:38:34;18.50;;;14.40;;
8458;SDS011;4266;48.816;9.154;2023-10-19T04:41:23;15.70;;;12.07;;
8458;SDS011;4266;48.816;9.154;2023-10-19T05:17:53;11.40;;;10.10;;
8458;SDS011;4266;48.816;9.154;2023-10-19T05:20:28;12.93;;;10.80;;
8458;SDS011;4266;48.816;9.154;2023-10-19T05:29:34;17.83;;;11.90;;
8458;SDS011;4266;48.816;9.154;2023-10-19T05:32:09;18.00;;;12.37;;
8458;SDS011;4266;48.816;9.154;2023-10-19T05:34:45;14.50;;;12.97;;
8458;SDS011;4266;48.816;9.154;2023-10-19T05:37:22;15.10;;;10.80;;
8458;SDS011;4266;48.816;9.154;2023-10-19T05:42:29;15.63;;;11.23;;
8458;SDS011;4266;48.816;9.154;2023-10-19T05:45:00;17.40;;;11.83;;
8458;SDS011;4266;48.816;9.154;2023-10-19T05:47:32;15.27;;;11.93;;
8458;SDS011;4266;48.816;9.154;2023-10-19T05:50:05;17.83;;;12.50;;
8458;SDS011;4266;48.816;9.154;2023-10-19T05:52:36;16.00;;;11.73;;
8458;SDS011;4266;48.816;9.154;2023-10-19T05:55:06;17.97;;;12.67;;
8458;SDS011;4266;48.816;9.154;2023-10-19T05:58:01;17.03;;;12.67;;
8458;SDS011;4266;48.816;9.154;2023-10-19T06:03:12;20.87;;;14.60;;
8458;SDS011;4266;48.816;9.154;2023-10-19T06:05:46;26.37;;;14.77;;
8458;SDS011;4266;48.816;9.154;2023-10-19T06:08:16;22.97;;;15.43;;
8458;SDS011;4266;48.816;9.154;2023-10-19T06:10:55;22.00;;;15.90;;
8458;SDS011;4266;48.816;9.154;2023-10-19T06:13:21;20.83;;;13.67;;
8458;SDS011;4266;48.816;9.154;2023-10-19T07:53:15;13.17;;;11.77;;
8458;SDS011;4266;48.816;9.154;2023-10-19T07:55:41;22.70;;;12.43;;
8458;SDS011;4266;48.816;9.154;2023-10-19T07:58:07;16.30;;;11.60;;
8458;SDS011;4266;48.816;9.154;2023-10-19T08:00:33;22.63;;;11.83;;
8458;SDS011;4266;48.816;9.154;2023-10-19T08:03:00;17.47;;;12.60;;
8458;SDS011;4266;48.816;9.154;2023-10-19T08:05:25;22.33;;;11.80;;
8458;SDS011;4266;48.816;9.154;2023-10-19T08:07:51;16.33;;;10.87;;
8458;SDS011;4266;48.816;9.154;2023-10-19T08:10:18;14.60;;;11.03;;
8458;SDS011;4266;48.816;9.154;2023-10-19T08:12:44;16.53;;;11.40;;
8458;SDS011;4266;48.816;9.154;2023-10-19T08:15:09;17.13;;;10.20;;
8458;SDS011;4266;48.816;9.154;2023-10-19T08:17:38;15.73;;;11.05;;
8458;SDS011;4266;48.816;9.154;2023-10-19T08:20:04;13.27;;;10.23;;
8458;SDS011;4266;48.816;9.154;2023-10-19T08:22:31;13.68;;;9.88;;
8458;SDS011;4266;48.816;9.154;2023-10-19T08:24:57;10.80;;;9.70;;
8458;SDS011;4266;48.816;9.154;2023-10-19T08:27:23;14.57;;;10.50;;
8458;SDS011;4266;48.816;9.154;2023-10-19T08:29:49;11.12;;;9.27;;
8458;SDS011;4266;48.816;9.154;2023-10-19T08:32:15;13.68;;;9.30;;
8458;SDS011;4266;48.816;9.154;2023-10-19T08:34:40;17.37;;;9.38;;
8458;SDS011;4266;48.816;9.154;2023-10-19T08:37:06;17.50;;;9.80;;
8458;SDS011;4266;48.816;9.154;2023-10-19T08:39:32;19.05;;;9.43;;
8458;SDS011;4266;48.816;9.154;2023-10-19T08:41:59;13.98;;;8.88;;
8458;SDS011;4266;48.816;9.154;2023-10-19T08:44:25;10.57;;;8.05;;
8458;SDS011;4266;48.816;9.154;2023-10-19T08:46:50;12.95;;;9.18;;
8458;SDS011;4266;48.816;9.154;2023-10-19T08:49:16;15.82;;;8.82;;
8458;SDS011;4266;48.816;9.154;2023-10-19T08:51:44;11.68;;;7.85;;
8458;SDS011;4266;48.816;9.154;2023-10-19T08:54:11;13.30;;;8.27;;
8458;SDS011;4266;48.816;9.154;2023-10-19T08:56:34;14.20;;;8.98;;
8458;SDS011;4266;48.816;9.154;2023-10-19T08:59:01;13.55;;;8.38;;
8458;SDS011;4266;48.816;9.154;2023-10-19T09:01:26;13.35;;;9.07;;
8458;SDS011;4266;48.816;9.154;2023-10-19T09:03:51;12.05;;;9.15;;
8458;SDS011;4266;48.816;9.154;2023-10-19T09:06:17;19.17;;;10.55;;
8458;SDS011;4266;48.816;9.154;2023-10-19T09:08:42;13.75;;;9.82;;
8458;SDS011;4266;48.816;9.154;2023-10-19T09:11:09;10.93;;;9.80;;
8458;SDS011;4266;48.816;9.154;2023-10-19T09:13:42;10.82;;;9.40;;
8458;SDS011;4266;48.816;9.154;2023-10-19T09:16:06;16.58;;;10.63;;
8458;SDS011;4266;48.816;9.154;2023-10-19T09:18:32;12.68;;;9.13;;
8458;SDS011;4266;48.816;9.154;2023-10-19T09:20:58;10.88;;;8.25;;
8458;SDS011;4266;48.816;9.154;2023-10-19T09:23:28;13.88;;;8.57;;
8458;SDS011;4266;48.816;9.154;2023-10-19T09:25:53;12.20;;;8.38;;
8458;SDS011;4266;48.816;9.154;2023-10-19T09:28:19;9.65;;;8.00;;
8458;SDS011;4266;48.816;9.154;2023-10-19T09:30:46;15.77;;;8.05;;
8458;SDS011;4266;48.816;9.154;2023-10-19T09:33:12;12.93;;;8.38;;
8458;SDS011;4266;48.816;9.154;2023-10-19T09:35:38;10.50;;;7.97;;
8458;SDS011;4266;48.816;9.154;2023-10-19T09:38:04;10.05;;;7.43;;
8458;SDS011;4266;48.816;9.154;2023-10-19T09:40:30;8.82;;;6.90;;
8458;SDS011;4266;48.816;9.154;2023-10-19T09:42:56;12.82;;;7.25;;
8458;SDS011;4266;48.816;9.154;2023-10-19T09:45:21;8.85;;;7.90;;
8458;SDS011;4266;48.816;9.154;2023-10-19T09:47:49;14.07;;;8.38;;
8458;SDS011;4266;48.816;9.154;2023-10-19T09:50:13;12.50;;;7.85;;
8458;SDS011;4266;48.816;9.154;2023-10-19T09:52:39;13.30;;;8.77;;
8458;SDS011;4266;48.816;9.154;2023-10-19T09:55:07;12.32;;;8.10;;
8458;SDS011;4266;48.816;9.154;2023-10-19T09:57:32;11.55;;;8.45;;
8458;SDS011;4266;48.816;9.154;2023-10-19T09:59:59;9.75;;;7.85;;
8458;SDS011;4266;48.816;9.154;2023-10-19T10:02:22;17.77;;;9.13;;
8458;SDS011;4266;48.816;9.154;2023-10-19T10:04:48;13.23;;;8.25;;
8458;SDS011;4266;48.816;9.154;2023-10-19T10:07:14;13.52;;;8.70;;
8458;SDS011;4266;48.816;9.154;2023-10-19T10:09:40;11.43;;;9.25;;
8458;SDS011;4266;48.816;9.154;2023-10-19T10:12:23;17.98;;;9.07;;
8458;SDS011;4266;48.816;9.154;2023-10-19T10:14:59;12.63;;;8.43;;
8458;SDS011;4266;48.816;9.154;2023-10-19T10:17:30;13.07;;;8.27;;
8458;SDS011;4266;48.816;9.154;2023-10-19T10:19:56;14.15;;;8.13;;
8458;SDS011;4266;48.816;9.154;2023-10-19T10:22:21;16.55;;;8.85;;
8458;SDS011;4266;48.816;9.154;2023-10-19T10:24:48;9.60;;;7.87;;
8458;SDS011;4266;48.816;9.154;2023-10-19T10:27:16;11.95;;;8.05;;
8458;SDS011;4266;48.816;9.154;2023-10-19T10:34:57;11.48;;;7.40;;
8458;SDS011;4266;48.816;9.154;2023-10-19T10:37:23;9.18;;;7.03;;
8458;SDS011;4266;48.816;9.154;2023-10-19T10:39:49;12.32;;;8.43;;
8458;SDS011;4266;48.816;9.154;2023-10-19T10:42:16;14.07;;;7.40;;
8458;SDS011;4266;48.816;9.154;2023-10-19T10:44:42;19.25;;;8.90;;
8458;SDS011;4266;48.816;9.154;2023-10-19T11:32:23;7.37;;;4.15;;
8458;SDS011;4266;48.816;9.154;2023-10-19T11:34:50;3.50;;;3.20;;
8458;SDS011;4266;48.816;9.154;2023-10-19T11:37:16;2.90;;;2.70;;
8458;SDS011;4266;48.816;9.154;2023-10-19T11:39:42;6.03;;;2.97;;
8458;SDS011;4266;48.816;9.154;2023-10-19T11:42:09;6.35;;;2.97;;
8458;SDS011;4266;48.816;9.154;2023-10-19T11:44:35;9.20;;;2.83;;
8458;SDS011;4266;48.816;9.154;2023-10-19T11:47:00;4.50;;;3.00;;
8458;SDS011;4266;48.816;9.154;2023-10-19T11:49:26;5.07;;;3.40;;
8458;SDS011;4266;48.816;9.154;2023-10-19T11:51:52;10.57;;;3.45;;
8458;SDS011;4266;48.816;9.154;2023-10-19T11:54:19;3.40;;;3.10;;
8458;SDS011;4266;48.816;9.154;2023-10-19T11:56:45;4.80;;;3.00;;
8458;SDS011;4266;48.816;9.154;2023-10-19T11:59:10;4.70;;;2.80;;
8458;SDS011;4266;48.816;9.154;2023-10-19T12:01:37;3.90;;;3.17;;
8458;SDS011;4266;48.816;9.154;2023-10-19T12:04:03;5.15;;;2.80;;
8458;SDS011;4266;48.816;9.154;2023-10-19T12:06:29;5.12;;;3.28;;
8458;SDS011;4266;48.816;9.154;2023-10-19T12:08:56;5.78;;;3.55;;
8458;SDS011;4266;48.816;9.154;2023-10-19T12:11:23;6.57;;;4.18;;
8458;SDS011;4266;48.816;9.154;2023-10-19T12:13:49;4.45;;;4.05;;
8458;SDS011;4266;48.816;9.154;2023-10-19T12:16:15;5.15;;;4.57;;
8458;SDS011;4266;48.816;9.154;2023-10-19T12:18:41;5.28;;;4.78;;
8458;SDS011;4266;48.816;9.154;2023-10-19T12:21:08;7.47;;;5.10;;
8458;SDS011;4266;48.816;9.154;2023-10-19T12:23:33;10.15;;;6.90;;
8458;SDS011;4266;48.816;9.154;2023-10-19T12:25:59;14.95;;;7.93;;
8458;SDS011;4266;48.816;9.154;2023-10-19T12:28:25;10.48;;;9.07;;
8458;SDS011;4266;48.816;9.154;2023-10-19T12:30:50;11.90;;;9.60;;
8458;SDS011;4266;48.816;9.154;2023-10-19T12:33:16;15.47;;;10.23;;
8458;SDS011;4266;48.816;9.154;2023-10-19T12:35:42;17.33;;;11.10;;
8458;SDS011;4266;48.816;9.154;2023-10-19T12:38:12;12.77;;;10.47;;
8458;SDS011;4266;48.816;9.154;2023-10-19T12:40:37;11.83;;;8.77;;
8458;SDS011;4266;48.816;9.154;2023-10-19T12:43:03;8.90;;;7.27;;
8458;SDS011;4266;48.816;9.154;2023-10-19T12:45:29;13.97;;;8.87;;
8458;SDS011;4266;48.816;9.154;2023-10-19T12:47:55;12.47;;;9.73;;
8458;SDS011;4266;48.816;9.154;2023-10-19T12:50:21;12.13;;;8.90;;
8458;SDS011;4266;48.816;9.154;2023-10-19T12:52:48;11.07;;;8.97;;
8458;SDS011;4266;48.816;9.154;2023-10-19T12:55:13;11.10;;;8.97;;
8458;SDS011;4266;48.816;9.154;2023-10-19T12:57:39;13.87;;;8.90;;
8458;SDS011;4266;48.816;9.154;2023-10-19T13:00:06;9.50;;;8.57;;
8458;SDS011;4266;48.816;9.154;2023-10-19T13:02:39;9.60;;;8.07;;
8458;SDS011;4266;48.816;9.154;2023-10-19T13:05:05;8.63;;;7.80;;
8458;SDS011;4266;48.816;9.154;2023-10-19T13:07:31;8.70;;;7.80;;
8458;SDS011;4266;48.816;9.154;2023-10-19T13:09:57;14.37;;;9.43;;
8458;SDS011;4266;48.816;9.154;2023-10-19T13:12:23;13.07;;;8.10;;
8458;SDS011;4266;48.816;9.154;2023-10-19T13:14:49;11.90;;;8.50;;
8458;SDS011;4266;48.816;9.154;2023-10-19T13:17:15;9.17;;;8.27;;
8458;SDS011;4266;48.816;9.154;2023-10-19T13:19:41;13.00;;;8.67;;
8458;SDS011;4266;48.816;9.154;2023-10-19T13:22:07;10.43;;;9.13;;
8458;SDS011;4266;48.816;9.154;2023-10-19T13:24:33;9.57;;;8.57;;
8458;SDS011;4266;48.816;9.154;2023-10-19T13:26:59;9.10;;;8.30;;
8458;SDS011;4266;48.816;9.154;2023-10-19T13:29:25;11.73;;;8.67;;
8458;SDS011;4266;48.816;9.154;2023-10-19T13:31:51;11.20;;;8.67;;
8458;SDS011;4266;48.816;9.154;2023-10-19T13:34:17;9.97;;;7.87;;
8458;SDS011;4266;48.816;9.154;2023-10-19T13:36:43;10.60;;;8.37;;
8458;SDS011;4266;48.816;9.154;2023-10-19T13:39:09;11.53;;;8.27;;
8458;SDS011;4266;48.816;9.154;2023-10-19T13:41:42;9.27;;;7.90;;
8458;SDS011;4266;48.816;9.154;2023-10-19T13:44:09;11.80;;;7.97;;
8458;SDS011;4266;48.816;9.154;2023-10-19T13:46:35;12.00;;;7.70;;
8458;SDS011;4266;48.816;9.154;2023-10-19T13:49:02;13.77;;;8.50;;
8458;SDS011;4266;48.816;9.154;2023-10-19T13:51:28;11.60;;;8.90;;
8458;SDS011;4266;48.816;9.154;2023-10-19T13:53:55;10.83;;;8.50;;
8458;SDS011;4266;48.816;9.154;2023-10-19T13:56:21;9.23;;;8.33;;
8458;SDS011;4266;48.816;9.154;2023-10-19T14:04:55;9.73;;;7.80;;
8458;SDS011;4266;48.816;9.154;2023-10-19T14:07:20;10.50;;;8.20;;
8458;SDS011;4266;48.816;9.154;2023-10-19T14:09:46;8.70;;;7.90;;
8458;SDS011;4266;48.816;9.154;2023-10-19T14:12:12;10.70;;;8.13;;
8458;SDS011;4266;48.816;9.154;2023-10-19T14:14:38;10.83;;;8.20;;
8458;SDS011;4266;48.816;9.154;2023-10-19T14:17:03;10.90;;;8.43;;
8458;SDS011;4266;48.816;9.154;2023-10-19T14:19:29;10.47;;;9.37;;
8458;SDS011;4266;48.816;9.154;2023-10-19T14:21:55;11.43;;;8.53;;
8458;SDS011;4266;48.816;9.154;2023-10-19T14:24:21;10.67;;;9.17;;
8458;SDS011;4266;48.816;9.154;2023-10-19T14:26:47;14.73;;;9.20;;
8458;SDS011;4266;48.816;9.154;2023-10-19T14:29:14;10.00;;;8.80;;
8458;SDS011;4266;48.816;9.154;2023-10-19T14:31:41;15.53;;;9.93;;
8458;SDS011;4266;48.816;9.154;2023-10-19T14:34:07;14.30;;;9.53;;
8458;SDS011;4266;48.816;9.154;2023-10-19T14:36:33;13.87;;;9.13;;
8458;SDS011;4266;48.816;9.154;2023-10-19T14:39:00;11.10;;;9.60;;
8458;SDS011;4266;48.816;9.154;2023-10-19T14:41:27;12.50;;;10.03;;
8458;SDS011;4266;48.816;9.154;2023-10-19T14:43:52;13.87;;;10.20;;
8458;SDS011;4266;48.816;9.154;2023-10-19T14:46:18;9.60;;;8.63;;
8458;SDS011;4266;48.816;9.154;2023-10-19T14:48:45;10.63;;;9.10;;
8458;SDS011;4266;48.816;9.154;2023-10-19T14:51:11;12.40;;;10.63;;
8458;SDS011;4266;48.816;9.154;2023-10-19T14:53:37;11.57;;;9.97;;
8458;SDS011;4266;48.816;9.154;2023-10-19T14:56:03;12.63;;;9.40;;
8458;SDS011;4266;48.816;9.154;2023-10-19T14:58:29;14.47;;;10.03;;
8458;SDS011;4266;48.816;9.154;2023-10-19T15:00:55;13.43;;;9.73;;
8458;SDS011;4266;48.816;9.154;2023-10-19T15:03:21;10.30;;;9.23;;
8458;SDS011;4266;48.816;9.154;2023-10-19T15:05:50;10.40;;;9.20;;
8458;SDS011;4266;48.816;9.154;2023-10-19T15:08:13;13.73;;;9.60;;
8458;SDS011;4266;48.816;9.154;2023-10-19T15:10:40;10.77;;;9.40;;
8458;SDS011;4266;48.816;9.154;2023-10-19T15:13:05;10.60;;;9.30;;
8458;SDS011;4266;48.816;9.154;2023-10-19T15:15:32;14.83;;;9.37;;
8458;SDS011;4266;48.816;9.154;2023-10-19T15:18:14;11.70;;;9.07;;
8458;SDS011;4266;48.816;9.154;2023-10-19T20:01:19;14.03;;;12.60;;
8458;SDS011;4266;48.816;9.154;2023-10-19T20:03:45;14.20;;;12.23;;
8458;SDS011;4266;48.816;9.154;2023-10-19T20:06:11;15.03;;;13.20;;
8458;SDS011;4266;48.816;9.154;2023-10-19T20:08:36;15.13;;;13.57;;
8458;SDS011;4266;48.816;9.154;2023-10-19T20:11:02;18.80;;;13.87;;
8458;SDS011;4266;48.816;9.154;2023-10-19T20:13:27;14.17;;;12.77;;
8458;SDS011;4266;48.816;9.154;2023-10-19T20:15:53;13.97;;;12.47;;
8458;SDS011;4266;48.816;9.154;2023-10-19T20:18:19;14.10;;;12.70;;
8458;SDS011;4266;48.816;9.154;2023-10-19T20:20:44;14.50;;;13.13;;
8458;SDS011;4266;48.816;9.154;2023-10-19T20:23:10;14.00;;;12.70;;
8458;SDS011;4266;48.816;9.154;2023-10-19T20:25:36;14.87;;;13.07;;
8458;SDS011;4266;48.816;9.154;2023-10-19T20:28:02;13.87;;;12.57;;
8458;SDS011;4266;48.816;9.154;2023-10-19T20:30:30;15.63;;;13.23;;
8458;SDS011;4266;48.816;9.154;2023-10-19T20:32:56;17.80;;;12.73;;
8458;SDS011;4266;48.816;9.154;2023-10-19T20:35:22;15.93;;;13.43;;
8458;SDS011;4266;48.816;9.154;2023-10-19T20:37:48;13.43;;;11.70;;
8458;SDS011;4266;48.816;9.154;2023-10-19T20:40:14;13.10;;;11.80;;
8458;SDS011;4266;48.816;9.154;2023-10-19T20:42:42;15.03;;;13.50;;
8458;SDS011;4266;48.816;9.154;2023-10-19T20:45:09;13.97;;;12.67;;
8458;SDS011;4266;48.816;9.154;2023-10-19T20:47:35;16.67;;;13.70;;
8458;SDS011;4266;48.816;9.154;2023-10-19T20:50:01;14.97;;;13.17;;
8458;SDS011;4266;48.816;9.154;2023-10-19T20:52:26;14.60;;;11.67;;
8458;SDS011;4266;48.816;9.154;2023-10-19T20:54:52;13.67;;;12.27;;
8458;SDS011;4266;48.816;9.154;2023-10-19T20:57:18;13.93;;;11.97;;
8458;SDS011;4266;48.816;9.154;2023-10-19T20:59:43;16.13;;;11.90;;
8458;SDS011;4266;48.816;9.154;2023-10-19T21:02:09;14.53;;;12.33;;
8458;SDS011;4266;48.816;9.154;2023-10-19T21:04:35;16.70;;;13.50;;
8458;SDS011;4266;48.816;9.154;2023-10-19T21:07:02;15.20;;;12.60;;
8458;SDS011;4266;48.816;9.154;2023-10-19T21:09:32;16.80;;;13.40;;
8458;SDS011;4266;48.816;9.154;2023-10-19T21:11:58;17.97;;;13.17;;
8458;SDS011;4266;48.816;9.154;2023-10-19T21:14:31;16.53;;;14.40;;
8458;SDS011;4266;48.816;9.154;2023-10-19T21:17:04;16.10;;;14.07;;
8458;SDS011;4266;48.816;9.154;2023-10-19T21:19:30;17.03;;;15.20;;
8458;SDS011;4266;48.816;9.154;2023-10-19T21:21:56;17.47;;;14.33;;
8458;SDS011;4266;48.816;9.154;2023-10-19T21:24:21;16.87;;;15.27;;
8458;SDS011;4266;48.816;9.154;2023-10-19T21:26:47;14.97;;;13.57;;
8458;SDS011;4266;48.816;9.154;2023-10-19T21:29:20;15.83;;;14.33;;
8458;SDS011;4266;48.816;9.154;2023-10-19T21:32:01;17.30;;;14.07;;
8458;SDS011;4266;48.816;9.154;2023-10-19T21:34:26;15.47;;;13.97;;
8458;SDS011;4266;48.816;9.154;2023-10-19T21:36:52;13.77;;;12.47;;
8458;SDS011;4266;48.816;9.154;2023-10-19T21:39:18;15.10;;;12.60;;
8458;SDS011;4266;48.816;9.154;2023-10-19T21:41:43;14.97;;;13.10;;
8458;SDS011;4266;48.816;9.154;2023-10-19T21:44:09;21.63;;;13.87;;
8458;SDS011;4266;48.816;9.154;2023-10-19T21:46:35;16.70;;;14.17;;
8458;SDS011;4266;48.816;9.154;2023-10-19T21:49:00;15.20;;;13.67;;
8458;SDS011;4266;48.816;9.154;2023-10-19T21:51:26;15.87;;;14.30;;
8458;SDS011;4266;48.816;9.154;2023-10-19T21:53:52;15.80;;;14.30;;
8458;SDS011;4266;48.816;9.154;2023-10-19T21:56:17;15.43;;;13.83;;
8458;SDS011;4266;48.816;9.154;2023-10-19T21:58:43;18.13;;;14.20;;
8458;SDS011;4266;48.816;9.154;2023-10-19T22:01:09;16.53;;;14.93;;
8458;SDS011;4266;48.816;9.154;2023-10-19T22:03:34;16.67;;;14.97;;
8458;SDS011;4266;48.816;9.154;2023-10-19T22:06:00;16.30;;;14.70;;
8458;SDS011;4266;48.816;9.154;2023-10-19T22:08:26;16.20;;;14.27;;
8458;SDS011;4266;48.816;9.154;2023-10-19T22:10:52;18.30;;;14.07;;
8458;SDS011;4266;48.816;9.154;2023-10-19T22:13:18;15.43;;;13.93;;
8458;SDS011;4266;48.816;9.154;2023-10-19T22:15:44;15.07;;;13.53;;
8458;SDS011;4266;48.816;9.154;2023-10-19T22:18:10;15.40;;;13.80;;
8458;SDS011;4266;48.816;9.154;2023-10-19T22:20:36;18.50;;;14.17;;
8458;SDS011;4266;48.816;9.154;2023-10-19T22:23:02;20.50;;;13.87;;
8458;SDS011;4266;48.816;9.154;2023-10-19T22:25:27;15.13;;;13.57;;
8458;SDS011;4266;48.816;9.154;2023-10-19T22:27:53;17.63;;;14.17;;
8458;SDS011;4266;48.816;9.154;2023-10-19T22:30:18;17.00;;;14.10;;
8458;SDS011;4266;48.816;9.154;2023-10-19T22:32:45;17.67;;;13.67;;
8458;SDS011;4266;48.816;9.154;2023-10-19T22:35:10;15.40;;;13.93;;
8458;SDS011;4266;48.816;9.154;2023-10-19T22:37:36;15.03;;;13.60;;
8458;SDS011;4266;48.816;9.154;2023-10-19T22:40:02;14.17;;;12.77;;
8458;SDS011;4266;48.816;9.154;2023-10-19T22:42:28;16.77;;;14.07;;
8458;SDS011;4266;48.816;9.154;2023-10-19T22:44:54;15.80;;;14.17;;
8458;SDS011;4266;48.816;9.154;2023-10-19T22:47:20;17.00;;;15.20;;
8458;SDS011;4266;48.816;9.154;2023-10-19T22:49:45;16.27;;;14.57;;
8458;SDS011;4266;48.816;9.154;2023-10-19T22:52:11;17.43;;;15.60;;
8458;SDS011;4266;48.816;9.154;2023-10-19T22:54:37;17.47;;;15.63;;
8458;SDS011;4266;48.816;9.154;2023-10-19T22:57:03;16.27;;;14.70;;
8458;SDS011;4266;48.816;9.154;2023-10-19T22:59:29;17.07;;;15.23;;
8458;SDS011;4266;48.816;9.154;2023-10-19T23:01:55;18.27;;;14.93;;
8458;SDS011;4266;48.816;9.154;2023-10-19T23:04:20;15.80;;;14.20;;
8458;SDS011;4266;48.816;9.154;2023-10-19T23:06:46;15.80;;;13.60;;
8458;SDS011;4266;48.816;9.154;2023-10-19T23:09:12;15.47;;;13.97;;
8458;SDS011;4266;48.816;9.154;2023-10-19T23:11:42;13.10;;;11.77;;
8458;SDS011;4266;48.816;9.154;2023-10-19T23:14:07;14.83;;;11.97;;
8458;SDS011;4266;48.816;9.154;2023-10-19T23:16:33;13.37;;;12.13;;
8458;SDS011;4266;48.816;9.154;2023-10-19T23:18:59;13.57;;;12.13;;
8458;SDS011;4266;48.816;9.154;2023-10-19T23:21:25;13.87;;;12.17;;
8458;SDS011;4266;48.816;9.154;2023-10-19T23:23:50;13.00;;;11.63;;
8458;SDS011;4266;48.816;9.154;2023-10-19T23:26:16;14.27;;;12.77;;
8458;SDS011;4266;48.816;9.154;2023-10-19T23:28:42;17.77;;;13.23;;
8458;SDS011;4266;48.816;9.154;2023-10-19T23:31:07;10.97;;;9.27;;
8458;SDS011;4266;48.816;9.154;2023-10-19T23:33:33;15.37;;;12.90;;
8458;SDS011;4266;48.816;9.154;2023-10-19T23:36:00;16.33;;;14.63;;
8458;SDS011;4266;48.816;9.154;2023-10-19T23:38:25;15.90;;;14.20;;
8458;SDS011;4266;48.816;9.154;2023-10-19T23:40:51;19.43;;;14.43;;
8458;SDS011;4266;48.816;9.154;2023-10-19T23:43:16;21.13;;;16.63;;
8458;SDS011;4266;48.816;9.154;2023-10-19T23:45:42;18.20;;;16.17;;
8458;SDS011;4266;48.816;9.154;2023-10-19T23:48:08;21.17;;;15.83;;
8458;SDS011;4266;48.816;9.154;2023-10-19T23:50:34;16.57;;;14.73;;
8458;SDS011;4266;48.816;9.154;2023-10-19T23:53:00;17.70;;;15.83;;
8458;SDS011;4266;48.816;9.154;2023-10-19T23:55:26;17.57;;;15.20;;
8458;SDS011;4266;48.816;9.154;2023-10-19T23:57:51;15.37;;;13.77;;
